Time;durP1;ratioP1;P1;durP2;ratioP2;P2;SDS_P1;SDS_P2;PMS_P1;PMS_P2;Temp;Humidity;BMP_temperature;BMP_pressure;BME280_temperature;BME280_humidity;BME280_pressure;Samples;Min_cycle;Max_cycle;Signal;HPM_P1;HPM_P2
2021/01/20 00:02:21;;;;;;;26.45;12.63;;;8.60;99.90;;;;;;4963778;28;20238;-72
2021/01/20 00:04:48;;;;;;;22.98;10.30;;;8.70;99.90;;;;;;4961853;28;20241;-72
2021/01/20 00:07:16;;;;;;;17.90;10.63;;;8.60;99.90;;;;;;4965340;28;20207;-72
2021/01/20 00:09:42;;;;;;;24.35;10.93;;;8.60;99.90;;;;;;4965636;28;20214;-72
2021/01/20 00:12:09;;;;;;;18.08;10.25;;;8.60;99.90;;;;;;4959993;28;20210;-72
2021/01/20 00:14:35;;;;;;;18.70;10.32;;;8.60;99.90;;;;;;4968471;28;20226;-72
2021/01/20 00:17:02;;;;;;;18.80;10.40;;;8.60;99.90;;;;;;4967067;28;20213;-72
2021/01/20 00:19:28;;;;;;;19.98;10.93;;;8.60;99.90;;;;;;4969090;28;20663;-72
2021/01/20 00:21:55;;;;;;;18.45;10.13;;;8.60;99.90;;;;;;4965436;28;21543;-72
2021/01/20 00:24:22;;;;;;;26.90;11.45;;;8.60;99.90;;;;;;4961999;28;20206;-72
2021/01/20 00:26:48;;;;;;;18.10;10.90;;;8.60;99.90;;;;;;4962606;28;20221;-72
2021/01/20 00:29:14;;;;;;;16.50;10.18;;;8.60;99.90;;;;;;4963658;28;20206;-72
2021/01/20 00:31:41;;;;;;;25.42;11.18;;;8.60;99.90;;;;;;4964788;28;20245;-72
2021/01/20 00:34:07;;;;;;;21.08;10.27;;;8.60;99.90;;;;;;4966584;28;20229;-72
2021/01/20 00:36:34;;;;;;;22.25;10.27;;;8.60;99.90;;;;;;4961616;28;20206;-72
2021/01/20 00:39:00;;;;;;;21.65;10.38;;;8.60;99.90;;;;;;4973344;28;20285;-72
2021/01/20 00:41:27;;;;;;;22.63;10.40;;;8.60;99.90;;;;;;4969683;28;20216;-72
2021/01/20 00:43:54;;;;;;;18.08;10.85;;;8.60;99.90;;;;;;4969852;28;20206;-72
2021/01/20 00:46:21;;;;;;;18.83;11.13;;;8.60;99.90;;;;;;4965618;28;20275;-72
2021/01/20 00:48:48;;;;;;;21.70;10.73;;;8.60;99.90;;;;;;4969184;28;20205;-72
2021/01/20 00:51:14;;;;;;;22.73;11.25;;;8.60;99.90;;;;;;4972625;28;20602;-72
2021/01/20 00:53:41;;;;;;;20.13;11.27;;;8.60;99.90;;;;;;4965748;28;20213;-72
2021/01/20 00:56:10;;;;;;;19.73;11.10;;;8.60;99.90;;;;;;4953008;28;20221;-72
2021/01/20 00:58:38;;;;;;;22.60;11.32;;;8.60;99.90;;;;;;4950712;28;20202;-72
2021/01/20 01:01:05;;;;;;;20.98;11.07;;;8.60;99.90;;;;;;4967945;28;20233;-72
2021/01/20 01:03:32;;;;;;;21.30;11.73;;;8.60;99.90;;;;;;4953522;28;20205;-72
2021/01/20 01:05:59;;;;;;;25.63;11.70;;;8.60;99.90;;;;;;4972911;28;20608;-72
2021/01/20 01:08:25;;;;;;;23.33;12.05;;;8.60;99.90;;;;;;4953620;28;20217;-72
2021/01/20 01:10:53;;;;;;;23.33;11.95;;;8.60;99.90;;;;;;4964990;28;20222;-72
2021/01/20 01:13:40;;;;;;;26.05;11.85;;;8.60;99.90;;;;;;4960413;28;20228;-72
2021/01/20 01:16:36;;;;;;;24.70;12.32;;;8.60;99.90;;;;;;4952608;28;20202;-73
2021/01/20 01:19:03;;;;;;;20.35;11.40;;;8.60;99.90;;;;;;4955226;28;20679;-70
2021/01/20 01:21:30;;;;;;;22.10;12.27;;;8.50;99.90;;;;;;4975787;28;20567;-72
2021/01/20 01:23:57;;;;;;;20.60;12.20;;;8.60;99.90;;;;;;4969558;28;20243;-73
2021/01/20 01:26:23;;;;;;;24.50;13.20;;;8.60;99.90;;;;;;4951752;28;20281;-72
2021/01/20 01:28:50;;;;;;;21.67;12.38;;;8.60;99.90;;;;;;4962371;28;20559;-72
2021/01/20 01:31:40;;;;;;;20.52;12.48;;;8.60;99.90;;;;;;4962286;28;20224;-73
2021/01/20 01:34:06;;;;;;;25.15;13.13;;;8.60;99.90;;;;;;4946910;28;20214;-72
2021/01/20 01:36:33;;;;;;;23.05;12.52;;;8.60;99.90;;;;;;4953744;28;20210;-72
2021/01/20 01:39:14;;;;;;;24.75;13.13;;;8.60;99.90;;;;;;4953526;28;20260;-73
2021/01/20 01:41:43;;;;;;;24.73;12.95;;;8.60;99.90;;;;;;4957072;28;20698;-73
2021/01/20 01:44:11;;;;;;;21.25;13.05;;;8.60;99.90;;;;;;4974364;28;20190;-73
2021/01/20 01:46:47;;;;;;;26.52;13.05;;;8.60;99.90;;;;;;4970902;28;20560;-72
2021/01/20 01:49:26;;;;;;;22.92;12.95;;;8.60;99.90;;;;;;4969654;28;20225;-72
2021/01/20 01:51:54;;;;;;;21.15;13.57;;;8.60;99.90;;;;;;4963873;28;20217;-72
2021/01/20 01:54:45;;;;;;;20.42;13.05;;;8.60;99.90;;;;;;4956992;28;20692;-72
2021/01/20 01:57:42;;;;;;;22.13;13.07;;;8.60;99.90;;;;;;4970112;28;20217;-73
2021/01/20 02:00:11;;;;;;;23.92;13.32;;;8.60;99.90;;;;;;4951254;28;20201;-72
2021/01/20 02:02:41;;;;;;;23.08;13.55;;;8.60;99.90;;;;;;4968585;28;20283;-73
2021/01/20 02:05:13;;;;;;;22.48;13.30;;;8.60;99.90;;;;;;4955064;28;20198;-72
2021/01/20 02:07:45;;;;;;;20.17;13.77;;;8.50;99.90;;;;;;4955547;28;20257;-72
2021/01/20 02:10:13;;;;;;;20.63;13.10;;;8.60;99.90;;;;;;4954067;28;20217;-73
2021/01/20 02:12:52;;;;;;;24.65;13.93;;;8.60;99.90;;;;;;4954370;28;20209;-73
2021/01/20 02:15:29;;;;;;;25.80;13.65;;;8.50;99.90;;;;;;4952463;28;20320;-73
2021/01/20 02:18:00;;;;;;;26.17;12.98;;;8.60;99.90;;;;;;4951005;28;20202;-73
2021/01/20 02:21:10;;;;;;;24.85;14.00;;;8.60;99.90;;;;;;4957401;28;20584;-73
2021/01/20 02:23:49;;;;;;;24.55;14.52;;;8.50;99.90;;;;;;4960958;28;20205;-72
2021/01/20 02:26:50;;;;;;;21.63;13.68;;;8.60;99.90;;;;;;4971114;28;20202;-72
2021/01/20 02:29:45;;;;;;;26.63;15.23;;;8.60;99.90;;;;;;4955490;28;20210;-72
2021/01/20 02:32:40;;;;;;;27.52;14.45;;;8.60;99.90;;;;;;4944643;28;20293;-71
2021/01/20 02:35:09;;;;;;;21.98;14.50;;;8.60;99.90;;;;;;4952570;28;20221;-74
2021/01/20 02:37:38;;;;;;;22.88;15.07;;;8.60;99.90;;;;;;4970486;28;20202;-74
2021/01/20 02:40:31;;;;;;;23.20;14.75;;;8.60;99.90;;;;;;4968870;28;20266;-73
2021/01/20 02:43:07;;;;;;;24.77;14.98;;;8.60;99.90;;;;;;4951226;28;20796;-73
2021/01/20 02:45:53;;;;;;;25.13;15.07;;;8.70;99.90;;;;;;4972327;28;20207;-73
2021/01/20 02:48:21;;;;;;;24.00;14.73;;;8.70;99.90;;;;;;4952521;28;20206;-71
2021/01/20 02:50:49;;;;;;;26.27;14.68;;;8.70;99.90;;;;;;4950238;28;20303;-72
2021/01/20 02:53:19;;;;;;;20.65;13.98;;;8.70;99.90;;;;;;4962676;28;20223;-73
2021/01/20 02:55:59;;;;;;;24.00;13.93;;;8.70;99.90;;;;;;4971904;28;20224;-73
2021/01/20 02:58:47;;;;;;;28.33;15.18;;;8.70;99.90;;;;;;4969284;28;20207;-73
2021/01/20 03:01:34;;;;;;;21.92;13.98;;;8.70;99.90;;;;;;4967945;28;20252;-74
2021/01/20 03:04:02;;;;;;;26.42;14.80;;;8.80;99.90;;;;;;4969732;28;20210;-73
2021/01/20 03:06:31;;;;;;;22.83;14.82;;;8.80;99.90;;;;;;4967659;28;20460;-74
2021/01/20 03:08:58;;;;;;;23.40;14.80;;;8.80;99.90;;;;;;4967463;28;20233;-73
2021/01/20 03:11:24;;;;;;;23.98;15.05;;;8.80;99.90;;;;;;4965428;28;20812;-74
2021/01/20 03:13:51;;;;;;;27.65;15.30;;;8.80;99.90;;;;;;4966847;28;20301;-73
2021/01/20 03:16:23;;;;;;;22.83;14.07;;;8.80;99.90;;;;;;4963574;28;20309;-74
2021/01/20 03:18:50;;;;;;;24.98;14.68;;;8.90;99.90;;;;;;4961775;28;20296;-73
2021/01/20 03:21:17;;;;;;;23.58;14.52;;;8.80;99.90;;;;;;4971508;28;20292;-73
2021/01/20 03:23:43;;;;;;;21.98;15.07;;;8.90;99.90;;;;;;4973025;28;20244;-73
2021/01/20 03:26:10;;;;;;;25.77;14.80;;;8.90;99.90;;;;;;4972735;28;20229;-73
2021/01/20 03:28:36;;;;;;;25.67;15.23;;;8.90;99.90;;;;;;4970439;28;20297;-74
2021/01/20 03:31:02;;;;;;;22.75;15.23;;;8.80;99.90;;;;;;4967813;28;20234;-73
2021/01/20 03:33:29;;;;;;;23.50;15.32;;;8.80;99.90;;;;;;4970297;28;20245;-73
2021/01/20 03:35:55;;;;;;;26.20;16.40;;;8.90;99.90;;;;;;4967921;28;20772;-73
2021/01/20 03:38:22;;;;;;;25.83;15.73;;;8.80;99.90;;;;;;4964606;28;20241;-73
2021/01/20 03:40:48;;;;;;;24.77;16.40;;;8.90;99.90;;;;;;4963257;28;20205;-74
2021/01/20 03:43:15;;;;;;;23.00;15.77;;;8.90;99.90;;;;;;4973276;28;20209;-74
2021/01/20 03:45:41;;;;;;;22.05;15.07;;;8.90;99.90;;;;;;4967417;28;20285;-73
2021/01/20 03:48:08;;;;;;;24.52;15.38;;;8.90;99.90;;;;;;4968597;28;20241;-73
2021/01/20 03:50:34;;;;;;;24.15;14.43;;;8.90;99.90;;;;;;4965309;28;20297;-74
2021/01/20 03:53:00;;;;;;;21.33;14.40;;;8.90;99.90;;;;;;4968578;28;20208;-74
2021/01/20 03:55:27;;;;;;;26.65;14.45;;;9.00;99.90;;;;;;4967757;28;20222;-73
2021/01/20 03:57:54;;;;;;;24.73;15.05;;;8.90;99.90;;;;;;4966468;28;20265;-73
2021/01/20 04:00:21;;;;;;;23.08;13.85;;;8.90;99.90;;;;;;4964516;28;20242;-74
2021/01/20 04:02:50;;;;;;;22.50;13.95;;;9.00;99.90;;;;;;4967603;28;20238;-74
2021/01/20 04:05:24;;;;;;;22.67;14.15;;;9.00;99.90;;;;;;4954202;28;20201;-73
2021/01/20 04:07:51;;;;;;;25.63;14.45;;;9.00;99.90;;;;;;4971971;28;20205;-74
2021/01/20 04:10:17;;;;;;;25.92;14.38;;;9.00;99.90;;;;;;4972522;28;20198;-73
2021/01/20 04:12:44;;;;;;;24.02;14.27;;;9.00;99.90;;;;;;4969991;28;20639;-73
2021/01/20 04:15:11;;;;;;;22.27;13.68;;;9.00;99.90;;;;;;4971544;28;20218;-74
2021/01/20 04:17:38;;;;;;;22.73;13.13;;;9.00;99.90;;;;;;4972119;28;20224;-74
2021/01/20 04:20:06;;;;;;;21.25;13.32;;;9.00;99.90;;;;;;4951597;28;20209;-72
2021/01/20 04:22:32;;;;;;;18.13;12.77;;;9.00;99.90;;;;;;4977146;28;20208;-73
2021/01/20 04:24:59;;;;;;;22.15;13.07;;;9.10;99.90;;;;;;4970624;28;20585;-73
2021/01/20 04:27:26;;;;;;;22.17;13.23;;;9.10;99.90;;;;;;4972441;28;20594;-73
2021/01/20 04:29:53;;;;;;;18.65;12.40;;;9.10;99.90;;;;;;4968591;28;20205;-74
2021/01/20 04:32:19;;;;;;;17.05;12.38;;;9.10;99.90;;;;;;4969383;28;20580;-73
2021/01/20 04:34:46;;;;;;;18.23;12.18;;;9.10;99.90;;;;;;4973038;28;20306;-74
2021/01/20 04:37:12;;;;;;;19.83;12.63;;;9.10;99.90;;;;;;4971945;28;20206;-73
2021/01/20 04:39:39;;;;;;;19.52;12.45;;;9.10;99.90;;;;;;4968919;28;20210;-74
2021/01/20 04:42:06;;;;;;;18.83;11.40;;;9.10;99.90;;;;;;4965694;28;20280;-73
2021/01/20 04:44:32;;;;;;;20.33;12.95;;;9.10;99.90;;;;;;4972393;28;20213;-74
2021/01/20 04:47:01;;;;;;;19.77;12.18;;;9.10;99.90;;;;;;4969863;28;20210;-73
2021/01/20 04:49:27;;;;;;;20.42;11.65;;;9.10;99.90;;;;;;4972527;28;20316;-73
2021/01/20 04:51:55;;;;;;;18.20;12.60;;;9.10;99.90;;;;;;4953790;28;20666;-73
2021/01/20 04:54:22;;;;;;;17.05;11.75;;;9.10;99.90;;;;;;4951279;28;20206;-73
2021/01/20 04:56:50;;;;;;;19.42;12.18;;;9.10;99.90;;;;;;4978132;28;20260;-73
2021/01/20 04:59:17;;;;;;;17.10;12.18;;;9.10;99.90;;;;;;4971789;28;20206;-73
2021/01/20 05:01:43;;;;;;;18.58;12.23;;;9.10;99.90;;;;;;4974791;28;20552;-73
2021/01/20 05:04:11;;;;;;;21.85;12.00;;;9.10;99.90;;;;;;4970190;28;20202;-73
2021/01/20 05:06:37;;;;;;;17.40;12.00;;;9.00;99.90;;;;;;4971247;28;20220;-73
2021/01/20 05:09:04;;;;;;;20.25;12.63;;;9.00;99.90;;;;;;4972355;28;20209;-73
2021/01/20 05:11:41;;;;;;;20.75;12.50;;;9.00;99.90;;;;;;4970674;28;20213;-73
2021/01/20 05:14:12;;;;;;;18.48;11.98;;;9.00;99.90;;;;;;4967532;28;20220;-72
2021/01/20 05:16:38;;;;;;;19.42;12.07;;;9.00;99.90;;;;;;4970599;28;20625;-73
2021/01/20 05:19:05;;;;;;;17.70;11.90;;;9.00;99.90;;;;;;4970317;28;20213;-73
2021/01/20 05:21:32;;;;;;;18.65;11.88;;;9.00;99.90;;;;;;4967544;28;20206;-73
2021/01/20 05:24:23;;;;;;;19.58;12.30;;;9.00;99.90;;;;;;4969889;28;20214;-73
2021/01/20 05:26:51;;;;;;;20.73;11.52;;;9.00;99.90;;;;;;4950723;28;20217;-72
2021/01/20 05:29:18;;;;;;;17.67;11.35;;;9.00;99.90;;;;;;4967527;28;20213;-72
2021/01/20 05:31:44;;;;;;;21.17;12.00;;;8.90;99.90;;;;;;4965361;28;20210;-73
2021/01/20 05:34:32;;;;;;;23.23;12.10;;;9.00;99.90;;;;;;4967479;28;20204;-72
2021/01/20 05:37:07;;;;;;;21.92;11.52;;;8.90;99.90;;;;;;4972057;28;20220;-73
2021/01/20 05:39:34;;;;;;;21.05;11.43;;;8.90;99.90;;;;;;4970460;28;20194;-72
2021/01/20 05:42:06;;;;;;;21.98;11.75;;;8.90;99.90;;;;;;4968895;28;20201;-72
2021/01/20 05:44:33;;;;;;;17.77;12.02;;;8.90;99.90;;;;;;4966803;28;20256;-72
2021/01/20 05:47:07;;;;;;;20.15;12.13;;;8.90;99.90;;;;;;4973323;28;20628;-72
2021/01/20 05:49:34;;;;;;;20.52;12.68;;;8.80;99.90;;;;;;4969056;28;20213;-73
2021/01/20 05:52:00;;;;;;;19.48;12.23;;;8.80;99.90;;;;;;4969765;28;20678;-72
2021/01/20 05:54:36;;;;;;;23.70;12.50;;;8.80;99.90;;;;;;4966019;28;20214;-72
2021/01/20 05:57:13;;;;;;;21.35;13.50;;;8.70;99.90;;;;;;4970308;28;20205;-72
2021/01/20 05:59:40;;;;;;;20.45;12.50;;;8.70;99.90;;;;;;4951065;28;20730;-72
2021/01/20 06:02:09;;;;;;;18.05;12.85;;;8.70;99.90;;;;;;4972259;28;20706;-72
2021/01/20 06:04:36;;;;;;;20.33;12.38;;;8.60;99.90;;;;;;4965990;28;20222;-72
2021/01/20 06:07:06;;;;;;;19.50;12.10;;;8.60;99.90;;;;;;4970603;28;20210;-72
2021/01/20 06:09:38;;;;;;;21.77;12.88;;;8.60;99.90;;;;;;4974486;28;20197;-73
2021/01/20 06:12:05;;;;;;;21.88;11.77;;;8.60;99.90;;;;;;4971050;28;20197;-72
2021/01/20 06:14:32;;;;;;;17.48;11.60;;;8.60;99.90;;;;;;4974763;28;20205;-72
2021/01/20 06:17:06;;;;;;;18.85;11.90;;;8.60;99.90;;;;;;4974380;28;20205;-73
2021/01/20 06:19:35;;;;;;;18.90;12.10;;;8.60;99.90;;;;;;4954255;28;22044;-73
2021/01/20 06:22:04;;;;;;;20.98;11.55;;;8.70;99.90;;;;;;4975876;28;20221;-73
2021/01/20 06:24:38;;;;;;;19.20;11.23;;;8.70;99.90;;;;;;4974903;28;20209;-73
2021/01/20 06:27:12;;;;;;;20.15;12.10;;;8.70;99.90;;;;;;4974333;28;20210;-73
2021/01/20 06:29:42;;;;;;;17.88;11.77;;;8.70;99.90;;;;;;4971605;28;20205;-71
2021/01/20 06:32:10;;;;;;;18.48;11.32;;;8.70;99.90;;;;;;4968835;28;20205;-74
2021/01/20 06:34:48;;;;;;;18.10;10.90;;;8.70;99.90;;;;;;4969455;28;20221;-73
2021/01/20 06:37:39;;;;;;;19.95;12.13;;;8.70;99.90;;;;;;4968940;28;20212;-73
2021/01/20 06:40:39;;;;;;;17.90;11.43;;;8.80;99.90;;;;;;4969291;28;20202;-74
2021/01/20 06:43:36;;;;;;;19.90;10.65;;;8.80;99.90;;;;;;4969641;28;20678;-73
2021/01/20 06:46:27;;;;;;;23.73;10.48;;;8.80;99.90;;;;;;4976000;28;20236;-74
2021/01/20 06:49:12;;;;;;;19.42;10.85;;;8.80;99.90;;;;;;4971249;28;20205;-74
2021/01/20 06:51:39;;;;;;;18.67;10.13;;;8.80;99.90;;;;;;4974479;28;20201;-74
2021/01/20 06:54:09;;;;;;;18.35;10.43;;;8.80;99.90;;;;;;4973171;28;20209;-73
2021/01/20 06:56:37;;;;;;;19.48;10.65;;;8.80;99.90;;;;;;4968580;28;20680;-74
2021/01/20 06:59:15;;;;;;;14.63;10.25;;;8.80;99.90;;;;;;4953807;28;20206;-73
2021/01/20 07:01:42;;;;;;;14.88;9.57;;;8.80;99.90;;;;;;4967064;28;20236;-74
2021/01/20 07:04:08;;;;;;;16.02;10.07;;;8.90;99.90;;;;;;4955082;28;20561;-73
2021/01/20 07:06:44;;;;;;;15.80;9.88;;;8.90;99.90;;;;;;4969778;28;20212;-73
2021/01/20 07:09:13;;;;;;;18.05;10.18;;;8.90;99.90;;;;;;4970800;28;20194;-75
2021/01/20 07:12:10;;;;;;;15.18;10.52;;;8.90;99.90;;;;;;4971160;28;20202;-75
2021/01/20 07:14:40;;;;;;;15.65;9.75;;;8.90;99.90;;;;;;4970995;28;20204;-74
2021/01/20 07:17:07;;;;;;;16.92;10.32;;;8.90;99.90;;;;;;4957017;28;20202;-74
2021/01/20 07:19:34;;;;;;;14.38;10.20;;;8.90;99.90;;;;;;4972945;28;20233;-76
2021/01/20 07:22:01;;;;;;;15.95;9.73;;;8.90;99.90;;;;;;4970455;28;20212;-74
2021/01/20 07:24:27;;;;;;;19.33;9.85;;;8.90;99.90;;;;;;4973633;28;20215;-74
2021/01/20 07:26:54;;;;;;;14.23;9.73;;;8.90;99.90;;;;;;4963173;28;20251;-74
2021/01/20 07:29:22;;;;;;;14.63;9.63;;;8.90;99.90;;;;;;4946660;28;20205;-74
2021/01/20 07:31:51;;;;;;;15.80;9.95;;;8.90;99.90;;;;;;4969710;28;20213;-75
2021/01/20 07:34:18;;;;;;;12.32;9.07;;;8.90;99.90;;;;;;4950166;28;20202;-75
2021/01/20 07:36:46;;;;;;;16.83;9.55;;;9.00;99.90;;;;;;4965730;28;20228;-76
2021/01/20 07:39:22;;;;;;;17.45;9.95;;;8.90;99.90;;;;;;4946995;28;20217;-76
2021/01/20 07:41:53;;;;;;;13.98;9.30;;;9.00;99.90;;;;;;4968303;28;20267;-76
2021/01/20 07:44:19;;;;;;;16.73;9.27;;;9.00;99.90;;;;;;4966572;28;20225;-76
2021/01/20 07:46:46;;;;;;;19.52;9.63;;;9.00;99.90;;;;;;4966436;28;20682;-76
2021/01/20 07:49:13;;;;;;;13.75;9.10;;;9.00;99.90;;;;;;4963363;28;20276;-75
2021/01/20 07:51:40;;;;;;;16.33;8.80;;;9.00;99.90;;;;;;4969355;28;20225;-75
2021/01/20 07:54:07;;;;;;;14.32;9.88;;;9.00;99.90;;;;;;4966231;28;20341;-76
2021/01/20 07:56:34;;;;;;;18.67;9.20;;;9.00;99.90;;;;;;4967030;28;20686;-75
2021/01/20 07:59:17;;;;;;;14.60;8.95;;;9.10;99.90;;;;;;4952355;28;20221;-76
2021/01/20 08:01:44;;;;;;;19.27;9.45;;;9.10;99.90;;;;;;4968393;28;20325;-75
2021/01/20 08:04:21;;;;;;;18.45;9.07;;;9.10;99.90;;;;;;4970663;28;20202;-74
2021/01/20 08:06:48;;;;;;;14.50;8.75;;;9.10;99.90;;;;;;4951480;28;20683;-76
2021/01/20 08:09:15;;;;;;;14.95;9.05;;;9.10;99.90;;;;;;4960915;28;20289;-75
2021/01/20 08:11:44;;;;;;;13.57;8.82;;;9.10;99.90;;;;;;4974096;28;20260;-75
2021/01/20 08:14:13;;;;;;;12.05;7.72;;;9.10;99.90;;;;;;4967861;28;20245;-76
2021/01/20 08:16:40;;;;;;;14.05;8.52;;;9.20;99.90;;;;;;4968410;28;20229;-75
2021/01/20 08:19:07;;;;;;;14.73;8.35;;;9.10;99.90;;;;;;4952545;28;20209;-73
2021/01/20 08:21:34;;;;;;;13.60;8.20;;;9.20;99.90;;;;;;4967799;28;20550;-73
2021/01/20 08:24:07;;;;;;;11.55;8.07;;;9.20;99.90;;;;;;4969942;28;20650;-74
2021/01/20 08:26:34;;;;;;;11.77;7.35;;;9.20;99.90;;;;;;4973069;28;20578;-74
2021/01/20 08:29:06;;;;;;;14.70;8.50;;;9.20;99.90;;;;;;4968280;28;20584;-74
2021/01/20 08:31:32;;;;;;;10.88;7.30;;;9.20;99.90;;;;;;4950897;28;20214;-74
2021/01/20 08:34:20;;;;;;;11.35;7.25;;;9.30;99.90;;;;;;4969126;28;20209;-75
2021/01/20 08:37:00;;;;;;;12.02;6.88;;;9.30;99.90;;;;;;4966401;28;20218;-74
2021/01/20 08:39:28;;;;;;;12.98;7.63;;;9.30;99.90;;;;;;4950882;28;20650;-75
2021/01/20 08:42:22;;;;;;;10.38;6.55;;;9.30;99.90;;;;;;4972355;28;20252;-75
2021/01/20 08:45:11;;;;;;;10.13;6.82;;;9.30;99.90;;;;;;4967533;28;20678;-75
2021/01/20 08:47:49;;;;;;;9.70;6.40;;;9.30;99.90;;;;;;4968477;28;20685;-74
2021/01/20 08:50:18;;;;;;;9.75;5.63;;;9.30;99.90;;;;;;4967364;28;20678;-76
2021/01/20 08:52:50;;;;;;;7.65;5.47;;;9.30;99.90;;;;;;4973003;28;20202;-73
2021/01/20 08:55:21;;;;;;;9.70;5.90;;;9.30;99.90;;;;;;4967142;28;20226;-73
2021/01/20 08:57:48;;;;;;;9.27;5.57;;;9.30;99.90;;;;;;4967738;28;20205;-73
2021/01/20 09:00:15;;;;;;;10.05;5.70;;;9.40;99.90;;;;;;4961255;28;20217;-73
2021/01/20 09:02:41;;;;;;;8.02;5.32;;;9.30;99.90;;;;;;4973254;28;20237;-74
2021/01/20 09:05:10;;;;;;;8.93;5.85;;;9.30;99.90;;;;;;4966938;28;20245;-73
2021/01/20 09:07:36;;;;;;;10.52;5.75;;;9.40;99.90;;;;;;4969469;28;20214;-74
2021/01/20 09:10:04;;;;;;;9.80;5.50;;;9.40;99.90;;;;;;4967231;28;20210;-73
2021/01/20 09:12:31;;;;;;;9.23;5.80;;;9.40;99.90;;;;;;4969091;28;20206;-73
2021/01/20 09:14:57;;;;;;;11.55;5.63;;;9.40;99.90;;;;;;4973525;28;20648;-74
2021/01/20 09:17:26;;;;;;;10.50;5.15;;;9.40;99.90;;;;;;4968576;28;20206;-76
2021/01/20 09:19:53;;;;;;;9.05;5.45;;;9.40;99.90;;;;;;4968184;28;20205;-74
2021/01/20 09:22:19;;;;;;;6.75;4.75;;;9.40;99.90;;;;;;4973984;28;20268;-74
2021/01/20 09:24:45;;;;;;;10.85;5.30;;;9.40;99.90;;;;;;4967939;28;20620;-73
2021/01/20 09:27:13;;;;;;;9.77;4.90;;;9.50;99.90;;;;;;4967990;28;20214;-75
2021/01/20 09:29:40;;;;;;;12.60;5.00;;;9.40;99.90;;;;;;4966754;28;20202;-73
2021/01/20 09:32:06;;;;;;;7.68;5.00;;;9.50;99.90;;;;;;4968594;28;20202;-73
2021/01/20 09:34:33;;;;;;;9.63;4.72;;;9.40;99.90;;;;;;4969115;28;20214;-73
2021/01/20 09:36:59;;;;;;;8.82;4.70;;;9.50;99.90;;;;;;4961145;28;20216;-75
2021/01/20 09:39:25;;;;;;;8.57;5.40;;;9.40;99.90;;;;;;4970723;28;20209;-73
2021/01/20 09:41:52;;;;;;;7.28;4.55;;;9.50;99.90;;;;;;4970320;28;20206;-72
2021/01/20 09:44:19;;;;;;;9.27;5.30;;;9.40;99.90;;;;;;4968808;28;20724;-74
2021/01/20 09:46:46;;;;;;;8.77;4.95;;;9.50;99.90;;;;;;4968465;28;20659;-74
2021/01/20 09:49:12;;;;;;;8.25;5.00;;;9.50;99.90;;;;;;4970604;28;20658;-71
2021/01/20 09:51:38;;;;;;;7.60;4.68;;;9.40;99.90;;;;;;4970405;28;20215;-72
2021/01/20 09:54:05;;;;;;;8.65;4.55;;;9.40;99.90;;;;;;4970571;28;20198;-73
2021/01/20 09:56:32;;;;;;;8.88;4.68;;;9.40;99.90;;;;;;4971564;28;20221;-72
2021/01/20 09:58:58;;;;;;;8.00;4.43;;;9.40;99.90;;;;;;4971505;28;20273;-72
2021/01/20 10:01:25;;;;;;;7.40;4.53;;;9.40;99.90;;;;;;4971852;28;20246;-72
2021/01/20 10:03:54;;;;;;;8.85;4.50;;;9.50;99.90;;;;;;4970224;28;20912;-75
2021/01/20 10:06:21;;;;;;;6.82;4.30;;;9.50;99.90;;;;;;4971780;28;20681;-75
2021/01/20 10:08:47;;;;;;;7.78;4.30;;;9.50;99.90;;;;;;4969239;28;20206;-75
2021/01/20 10:11:13;;;;;;;8.63;4.43;;;9.50;99.90;;;;;;4971950;28;20194;-75
2021/01/20 10:13:40;;;;;;;8.98;4.50;;;9.50;99.90;;;;;;4970766;28;20224;-75
2021/01/20 10:16:06;;;;;;;8.75;4.85;;;9.50;99.90;;;;;;4971363;28;20222;-73
2021/01/20 10:18:33;;;;;;;7.72;4.32;;;9.50;99.90;;;;;;4971971;28;20210;-74
2021/01/20 10:21:00;;;;;;;7.80;4.43;;;9.60;99.90;;;;;;4971147;28;20197;-74
2021/01/20 10:23:26;;;;;;;7.82;4.65;;;9.60;99.90;;;;;;4977320;28;20194;-73
2021/01/20 10:25:52;;;;;;;8.95;4.10;;;9.60;99.90;;;;;;4970749;28;20677;-75
2021/01/20 10:28:19;;;;;;;7.97;4.10;;;9.60;99.90;;;;;;4971691;28;20214;-74
2021/01/20 10:30:45;;;;;;;10.40;3.83;;;9.60;99.90;;;;;;4970977;28;20216;-74
2021/01/20 10:33:11;;;;;;;7.38;4.10;;;9.60;99.90;;;;;;4976142;28;20275;-74
2021/01/20 10:35:40;;;;;;;5.95;3.90;;;9.60;99.90;;;;;;4953552;28;20222;-74
2021/01/20 10:38:06;;;;;;;7.30;4.00;;;9.60;99.90;;;;;;4952856;28;20241;-73
2021/01/20 10:40:32;;;;;;;9.10;4.25;;;9.60;99.90;;;;;;4972063;28;20239;-74
2021/01/20 10:42:58;;;;;;;7.90;4.13;;;9.60;99.90;;;;;;4970419;28;20220;-75
2021/01/20 10:45:25;;;;;;;8.13;3.90;;;9.60;99.90;;;;;;4977522;28;20910;-75
2021/01/20 10:47:51;;;;;;;8.55;4.18;;;9.60;99.90;;;;;;4970698;28;20663;-74
2021/01/20 10:50:18;;;;;;;6.70;3.83;;;9.60;99.90;;;;;;4977047;28;20213;-75
2021/01/20 10:52:48;;;;;;;7.13;3.83;;;9.60;99.90;;;;;;4971582;28;20206;-76
2021/01/20 10:55:14;;;;;;;7.35;4.10;;;9.60;99.90;;;;;;4951764;28;20233;-75
2021/01/20 10:57:40;;;;;;;7.68;4.10;;;9.60;99.90;;;;;;4953704;28;20218;-74
2021/01/20 11:00:08;;;;;;;6.70;3.75;;;9.70;99.90;;;;;;4977136;28;20223;-74
2021/01/20 11:02:34;;;;;;;7.80;3.88;;;9.70;99.90;;;;;;4968826;28;20226;-73
2021/01/20 11:05:01;;;;;;;5.85;3.30;;;9.70;99.90;;;;;;4970262;28;20198;-73
2021/01/20 11:07:27;;;;;;;6.75;3.28;;;9.80;99.90;;;;;;4956205;28;20217;-73
2021/01/20 11:09:56;;;;;;;8.02;4.30;;;9.80;99.90;;;;;;4970071;28;20268;-72
2021/01/20 11:12:22;;;;;;;7.15;3.72;;;9.90;99.90;;;;;;4970023;28;20252;-72
2021/01/20 11:14:49;;;;;;;5.65;3.35;;;9.90;99.90;;;;;;4974129;28;20582;-74
2021/01/20 11:17:15;;;;;;;8.65;3.83;;;9.90;99.90;;;;;;4954260;28;20687;-73
2021/01/20 11:19:41;;;;;;;5.88;3.38;;;10.00;99.90;;;;;;4969817;28;20217;-74
2021/01/20 11:22:09;;;;;;;5.63;3.60;;;9.90;99.90;;;;;;4970009;28;20670;-74
2021/01/20 11:24:36;;;;;;;5.15;3.70;;;9.90;99.90;;;;;;4969816;28;20205;-73
2021/01/20 11:27:03;;;;;;;4.70;3.28;;;9.90;99.90;;;;;;4975585;28;20202;-73
2021/01/20 11:29:29;;;;;;;5.43;3.45;;;10.00;99.90;;;;;;4969240;28;20670;-74
2021/01/20 11:31:56;;;;;;;5.57;3.65;;;10.00;99.90;;;;;;4970011;28;20221;-74
2021/01/20 11:34:22;;;;;;;7.30;3.25;;;9.90;99.90;;;;;;4973682;28;20213;-74
2021/01/20 11:36:49;;;;;;;6.50;3.50;;;9.90;99.90;;;;;;4970364;28;20602;-73
2021/01/20 11:39:15;;;;;;;10.05;4.20;;;9.90;99.90;;;;;;4974349;28;20208;-74
2021/01/20 11:41:41;;;;;;;6.10;3.70;;;9.90;99.90;;;;;;4969918;28;21031;-74
2021/01/20 11:44:08;;;;;;;5.50;3.53;;;9.90;99.90;;;;;;4968355;28;20654;-73
2021/01/20 11:46:35;;;;;;;6.82;3.85;;;9.90;99.90;;;;;;4951963;28;20206;-73
2021/01/20 11:49:07;;;;;;;6.57;3.63;;;9.90;99.90;;;;;;4969016;28;20213;-73
2021/01/20 11:51:34;;;;;;;9.35;3.95;;;9.80;99.90;;;;;;4968732;28;20281;-74
2021/01/20 11:54:01;;;;;;;7.90;4.00;;;9.80;99.90;;;;;;4951945;28;21293;-74
2021/01/20 11:56:27;;;;;;;10.15;4.30;;;9.80;99.90;;;;;;4978908;28;20216;-73
2021/01/20 11:58:53;;;;;;;8.27;3.90;;;9.70;99.90;;;;;;4967789;28;20256;-74
2021/01/20 12:01:22;;;;;;;6.97;3.65;;;9.70;99.90;;;;;;4952443;28;20595;-74
2021/01/20 12:03:49;;;;;;;6.22;3.83;;;9.70;99.90;;;;;;4969194;28;20256;-73
2021/01/20 12:06:15;;;;;;;5.97;3.60;;;9.70;99.90;;;;;;4969708;28;20275;-73
2021/01/20 12:08:42;;;;;;;5.22;3.40;;;9.70;99.90;;;;;;4973856;28;20651;-73
2021/01/20 12:11:08;;;;;;;7.97;3.63;;;9.70;99.90;;;;;;4969706;28;20193;-74
2021/01/20 12:13:34;;;;;;;6.20;3.55;;;9.70;99.90;;;;;;4969548;28;20210;-74
2021/01/20 12:16:01;;;;;;;6.38;3.80;;;9.70;99.90;;;;;;4969684;28;20221;-74
2021/01/20 12:18:28;;;;;;;7.03;3.85;;;9.70;99.90;;;;;;4969513;28;20572;-75
2021/01/20 12:20:55;;;;;;;8.13;3.55;;;9.70;99.90;;;;;;4972466;28;20194;-74
2021/01/20 12:23:21;;;;;;;8.13;3.60;;;9.70;99.90;;;;;;4969685;28;20299;-74
2021/01/20 12:25:47;;;;;;;7.80;3.60;;;9.70;99.90;;;;;;4972787;28;20580;-74
2021/01/20 12:28:14;;;;;;;7.20;3.78;;;9.70;99.90;;;;;;4952574;28;20224;-74
2021/01/20 12:30:40;;;;;;;7.05;3.45;;;9.70;99.90;;;;;;4970101;28;20213;-74
2021/01/20 12:33:06;;;;;;;5.28;3.60;;;9.70;99.90;;;;;;4969423;28;20229;-74
2021/01/20 12:35:34;;;;;;;6.55;3.85;;;9.60;99.90;;;;;;4969169;28;20214;-73
2021/01/20 12:38:00;;;;;;;10.18;4.28;;;9.60;99.90;;;;;;4969078;28;20674;-73
2021/01/20 12:40:26;;;;;;;10.25;3.78;;;9.50;99.90;;;;;;4952427;28;20202;-73
2021/01/20 12:42:53;;;;;;;6.95;4.03;;;9.50;99.90;;;;;;4968877;28;20202;-73
2021/01/20 12:45:19;;;;;;;5.13;3.58;;;9.50;99.90;;;;;;4969496;28;20208;-73
2021/01/20 12:47:45;;;;;;;8.35;4.38;;;9.40;99.90;;;;;;4971156;28;20202;-74
2021/01/20 12:50:13;;;;;;;7.00;3.83;;;9.40;99.90;;;;;;4951246;28;21576;-74
2021/01/20 12:52:40;;;;;;;7.97;3.65;;;9.40;99.90;;;;;;4970342;28;20261;-73
2021/01/20 12:55:08;;;;;;;8.25;3.88;;;9.40;99.90;;;;;;4950471;28;20212;-73
2021/01/20 12:57:34;;;;;;;6.13;3.70;;;9.40;99.90;;;;;;4972132;28;20221;-74